createdAt,value
2018-12-11T00:00:10.396Z,15.65
2018-12-11T00:02:39.643Z,16.85
2018-12-11T00:05:08.279Z,13.72
2018-12-11T00:07:36.972Z,13.20
2018-12-11T00:10:06.217Z,19.65
2018-12-11T00:12:35.389Z,18.67
2018-12-11T00:15:05.104Z,15.83
2018-12-11T00:17:34.666Z,18.67
2018-12-11T00:20:03.739Z,18.90
2018-12-11T00:22:33.012Z,20.12
2018-12-11T00:25:02.193Z,19.98
2018-12-11T00:27:31.282Z,19.42
2018-12-11T00:30:00.583Z,17.98
2018-12-11T00:32:29.721Z,17.82
2018-12-11T00:34:59.027Z,23.10
2018-12-11T00:37:28.780Z,23.85
2018-12-11T00:39:58.270Z,18.65
2018-12-11T00:42:26.935Z,18.25
2018-12-11T00:44:56.208Z,22.42
2018-12-11T00:47:25.573Z,24.30
2018-12-11T00:49:54.803Z,21.77
2018-12-11T00:52:24.621Z,23.10
2018-12-11T00:54:53.380Z,26.80
2018-12-11T00:57:22.839Z,24.20
2018-12-11T00:59:52.301Z,24.47
2018-12-11T01:02:21.656Z,23.95
2018-12-11T01:04:50.943Z,23.92
2018-12-11T01:07:19.894Z,20.23
2018-12-11T01:09:49.361Z,28.05
2018-12-11T01:12:18.744Z,28.27
2018-12-11T01:14:48.417Z,25.48
2018-12-11T01:17:18.004Z,22.02
2018-12-11T01:19:47.540Z,27.02
2018-12-11T01:22:16.627Z,25.60
2018-12-11T01:24:45.921Z,24.00
2018-12-11T01:27:15.421Z,23.32
2018-12-11T01:29:45.948Z,27.05
2018-12-11T01:32:15.708Z,38.17
2018-12-11T01:34:44.348Z,33.98
2018-12-11T01:37:13.508Z,29.10
2018-12-11T01:39:42.655Z,30.45
2018-12-11T01:42:11.735Z,23.77
2018-12-11T01:44:40.804Z,28.62
2018-12-11T01:47:09.831Z,26.25
2018-12-11T01:49:39.152Z,24.55
2018-12-11T01:52:08.178Z,21.97
2018-12-11T01:54:37.511Z,25.72
2018-12-11T01:57:06.860Z,22.87
2018-12-11T01:59:35.911Z,21.02
2018-12-11T02:02:05.231Z,27.93
2018-12-11T02:04:34.310Z,23.42
2018-12-11T02:07:03.656Z,23.02
2018-12-11T02:09:32.925Z,21.60
2018-12-11T02:12:02.041Z,25.10
2018-12-11T02:14:30.758Z,21.90
2018-12-11T02:16:59.731Z,20.30
2018-12-11T02:19:28.551Z,18.98
2018-12-11T02:21:58.305Z,21.02
2018-12-11T02:24:27.054Z,21.45
2018-12-11T02:26:56.044Z,20.48
2018-12-11T02:29:25.162Z,21.05
2018-12-11T02:31:54.227Z,24.55
2018-12-11T02:34:22.893Z,19.02
2018-12-11T02:36:51.576Z,21.40
2018-12-11T02:39:20.262Z,23.12
2018-12-11T02:41:49.411Z,19.73
2018-12-11T02:44:18.677Z,20.82
2018-12-11T02:46:47.932Z,21.07
2018-12-11T02:49:17.372Z,23.50
2018-12-11T02:51:46.483Z,21.87
2018-12-11T02:54:15.574Z,23.77
2018-12-11T02:56:44.263Z,20.23
2018-12-11T02:59:12.891Z,18.52
2018-12-11T03:01:41.543Z,25.15
2018-12-11T03:04:10.232Z,21.07
2018-12-11T03:06:38.879Z,17.95
2018-12-11T03:09:07.901Z,19.65
2018-12-11T03:11:37.542Z,22.45
2018-12-11T03:14:06.231Z,23.52
2018-12-11T03:16:34.940Z,24.50
2018-12-11T03:19:04.531Z,26.60
2018-12-11T03:21:33.559Z,22.87
2018-12-11T03:24:02.728Z,21.20
2018-12-11T03:26:32.197Z,22.93
2018-12-11T03:29:01.251Z,26.10
2018-12-11T03:31:30.183Z,26.57
2018-12-11T03:33:58.871Z,24.23
2018-12-11T03:36:27.597Z,26.10
2018-12-11T03:38:56.292Z,23.60
2018-12-11T03:41:24.968Z,23.83
2018-12-11T03:43:53.637Z,21.42
2018-12-11T03:46:22.368Z,29.85
2018-12-11T03:48:51.023Z,28.90
2018-12-11T03:51:20.916Z,26.52
2018-12-11T03:53:50.634Z,22.00
2018-12-11T03:56:19.993Z,21.87
2018-12-11T03:58:48.666Z,21.07
2018-12-11T04:01:17.369Z,21.45
2018-12-11T04:03:46.407Z,20.25
2018-12-11T04:06:15.525Z,23.50
2018-12-11T04:08:44.828Z,18.92
2018-12-11T04:11:13.892Z,27.87
2018-12-11T04:13:43.199Z,20.25
2018-12-11T04:16:11.892Z,21.23
2018-12-11T04:18:40.593Z,23.42
2018-12-11T04:21:09.547Z,17.27
2018-12-11T04:23:38.221Z,17.77
2018-12-11T04:26:06.876Z,20.52
2018-12-11T04:28:35.609Z,18.85
2018-12-11T04:31:04.458Z,21.20
2018-12-11T04:33:33.273Z,18.42
2018-12-11T04:36:01.929Z,17.95
2018-12-11T04:38:30.682Z,20.55
2018-12-11T04:41:00.543Z,18.52
2018-12-11T04:43:29.843Z,18.52
2018-12-11T04:45:58.999Z,17.73
2018-12-11T04:48:28.451Z,17.57
2018-12-11T04:50:57.462Z,16.30
2018-12-11T04:53:26.835Z,26.70
2018-12-11T04:55:55.555Z,18.10
2018-12-11T04:58:24.317Z,18.57
2018-12-11T05:00:53.172Z,23.60
2018-12-11T05:03:22.121Z,25.20
2018-12-11T05:05:51.214Z,27.30
2018-12-11T05:08:20.322Z,32.10
2018-12-11T05:10:49.819Z,51.20
2018-12-11T05:13:18.925Z,50.55
2018-12-11T05:15:47.632Z,49.00
2018-12-11T05:18:16.274Z,49.50
2018-12-11T05:20:45.583Z,57.35
2018-12-11T05:23:14.931Z,54.03
2018-12-11T05:25:44.156Z,39.30
2018-12-11T05:28:13.555Z,55.38
2018-12-11T05:30:42.847Z,54.73
2018-12-11T05:33:12.273Z,41.90
2018-12-11T05:35:41.637Z,43.75
2018-12-11T05:38:10.918Z,46.28
2018-12-11T05:40:40.151Z,28.23
2018-12-11T05:43:09.676Z,29.42
2018-12-11T05:45:39.104Z,35.83
2018-12-11T05:48:08.259Z,33.48
2018-12-11T05:50:37.795Z,31.48
2018-12-11T05:53:06.500Z,31.37
2018-12-11T05:55:35.779Z,36.58
2018-12-11T05:58:04.407Z,45.00
2018-12-11T06:00:33.157Z,39.55
2018-12-11T06:03:01.831Z,29.90
2018-12-11T06:05:30.915Z,39.53
2018-12-11T06:08:00.198Z,48.40
2018-12-11T06:10:29.567Z,61.25
2018-12-11T06:12:58.790Z,79.27
2018-12-11T06:15:27.817Z,127.22
2018-12-11T06:17:57.109Z,77.40
2018-12-11T06:20:26.422Z,69.85
2018-12-11T06:22:55.725Z,58.80
2018-12-11T06:25:25.249Z,71.17
2018-12-11T06:27:54.367Z,58.00
2018-12-11T06:30:23.621Z,47.53
2018-12-11T06:32:52.675Z,47.40
2018-12-11T06:35:21.775Z,51.80
2018-12-11T06:37:50.919Z,51.15
2018-12-11T06:40:19.977Z,53.75
2018-12-11T06:42:48.617Z,47.35
2018-12-11T06:45:17.274Z,31.50
2018-12-11T06:47:46.566Z,47.15
2018-12-11T06:50:15.248Z,56.45
2018-12-11T06:52:44.547Z,34.58
2018-12-11T06:55:14.222Z,43.60
2018-12-11T06:57:43.391Z,34.70
2018-12-11T07:00:12.758Z,40.63
2018-12-11T07:02:42.066Z,33.78
2018-12-11T07:05:11.108Z,49.00
2018-12-11T07:07:40.169Z,32.58
2018-12-11T07:10:09.271Z,28.65
2018-12-11T07:12:38.499Z,34.33
2018-12-11T07:15:07.812Z,29.40
2018-12-11T07:17:37.320Z,30.65
2018-12-11T07:20:07.327Z,35.23
2018-12-11T07:22:36.187Z,41.05
2018-12-11T07:25:05.435Z,45.12
2018-12-11T07:27:35.093Z,47.50
2018-12-11T07:30:04.466Z,42.23
2018-12-11T07:32:33.167Z,40.08
2018-12-11T07:35:02.491Z,40.50
2018-12-11T07:37:31.552Z,34.92
2018-12-11T07:40:00.994Z,32.45
2018-12-11T07:42:30.159Z,24.40
2018-12-11T07:44:59.663Z,22.87
2018-12-11T07:47:28.810Z,21.30
2018-12-11T07:49:58.175Z,21.60
2018-12-11T07:52:27.527Z,20.52
2018-12-11T07:54:56.829Z,19.80
2018-12-11T07:57:26.072Z,18.42
2018-12-11T07:59:55.276Z,19.80
2018-12-11T08:02:24.819Z,17.75
2018-12-11T08:04:53.985Z,15.85
2018-12-11T08:07:23.485Z,17.45
2018-12-11T08:09:52.178Z,15.38
2018-12-11T08:12:20.964Z,15.10
2018-12-11T08:14:49.631Z,14.00
2018-12-11T08:17:18.347Z,10.88
2018-12-11T08:19:47.708Z,13.50
2018-12-11T08:22:17.013Z,21.42
2018-12-11T08:24:46.341Z,14.90
2018-12-11T08:27:15.624Z,28.65
2018-12-11T08:29:45.034Z,22.80
2018-12-11T08:32:14.206Z,17.23
2018-12-11T08:34:43.659Z,19.07
2018-12-11T08:37:12.773Z,19.48
2018-12-11T08:39:41.874Z,18.23
2018-12-11T08:42:11.134Z,17.77
2018-12-11T08:44:40.656Z,16.85
2018-12-11T08:47:10.138Z,16.50
2018-12-11T08:49:39.217Z,14.40
2018-12-11T08:52:08.772Z,15.15
2018-12-11T08:54:38.064Z,13.22
2018-12-11T08:57:07.355Z,15.08
2018-12-11T08:59:36.652Z,12.90
2018-12-11T09:02:05.806Z,12.78
2018-12-11T09:04:34.962Z,13.98
2018-12-11T09:07:04.052Z,13.48
2018-12-11T09:09:33.475Z,14.70
2018-12-11T09:12:03.029Z,13.45
2018-12-11T09:14:32.147Z,13.95
2018-12-11T09:17:01.445Z,16.70
2018-12-11T09:19:30.672Z,13.43
2018-12-11T09:21:59.816Z,16.82
2018-12-11T09:24:28.876Z,17.95
2018-12-11T09:26:58.114Z,17.32
2018-12-11T09:29:27.450Z,18.32
2018-12-11T09:31:56.449Z,18.40
2018-12-11T09:34:25.720Z,24.77
2018-12-11T09:36:55.057Z,17.80
2018-12-11T09:39:23.689Z,16.17
2018-12-11T09:41:52.298Z,20.75
2018-12-11T09:44:20.981Z,18.70
2018-12-11T09:46:50.108Z,15.78
2018-12-11T09:49:19.635Z,15.80
2018-12-11T09:51:48.841Z,24.50
2018-12-11T09:54:18.170Z,16.62
2018-12-11T09:56:48.001Z,19.27
2018-12-11T09:59:23.241Z,17.40
2018-12-11T10:01:48.900Z,17.80
2018-12-11T10:04:18.154Z,20.52
2018-12-11T10:06:47.327Z,17.48
2018-12-11T10:09:16.376Z,23.47
2018-12-11T10:11:45.781Z,19.17
2018-12-11T10:14:14.776Z,18.45
2018-12-11T10:16:43.871Z,17.73
2018-12-11T10:19:12.952Z,17.30
2018-12-11T10:21:41.628Z,17.20
2018-12-11T10:24:10.247Z,26.60
2018-12-11T10:26:38.912Z,23.55
2018-12-11T10:29:07.766Z,19.82
2018-12-11T10:31:36.904Z,17.85
2018-12-11T10:34:06.401Z,17.80
2018-12-11T10:36:35.336Z,22.70
2018-12-11T10:39:06.377Z,29.63
2018-12-11T10:41:35.557Z,23.27
2018-12-11T10:44:05.036Z,21.87
2018-12-11T10:46:34.075Z,24.43
2018-12-11T10:49:03.345Z,21.77
2018-12-11T10:51:32.674Z,15.55
2018-12-11T10:54:01.572Z,19.40
2018-12-11T10:56:30.756Z,17.35
2018-12-11T10:58:59.718Z,22.58
2018-12-11T11:01:28.783Z,21.90
2018-12-11T11:03:57.468Z,23.55
2018-12-11T11:06:26.233Z,17.92
2018-12-11T11:08:55.392Z,26.68
2018-12-11T11:11:24.691Z,24.43
2018-12-11T11:13:53.757Z,22.35
2018-12-11T11:16:22.864Z,20.60
2018-12-11T11:18:52.398Z,24.63
2018-12-11T11:21:21.623Z,26.62
2018-12-11T11:23:50.663Z,26.87
2018-12-11T11:26:19.746Z,31.17
2018-12-11T11:28:48.848Z,20.68
2018-12-11T11:31:18.220Z,21.37
2018-12-11T11:33:47.296Z,20.25
2018-12-11T11:36:16.753Z,20.82
2018-12-11T11:38:46.048Z,17.70
2018-12-11T11:41:15.340Z,20.88
2018-12-11T11:43:44.148Z,19.57
2018-12-11T11:46:13.199Z,21.80
2018-12-11T11:48:42.122Z,22.62
2018-12-11T11:51:10.733Z,20.88
2018-12-11T11:53:39.327Z,18.00
2018-12-11T11:56:07.974Z,23.90
2018-12-11T11:58:36.612Z,19.12
2018-12-11T12:01:05.871Z,16.77
2018-12-11T12:03:34.953Z,17.67
2018-12-11T12:06:04.007Z,15.05
2018-12-11T12:08:33.165Z,18.80
2018-12-11T12:11:02.269Z,25.50
2018-12-11T12:13:31.547Z,23.12
2018-12-11T12:16:00.451Z,21.15
2018-12-11T12:18:29.356Z,20.80
2018-12-11T12:20:58.454Z,25.43
2018-12-11T12:23:27.666Z,21.60
2018-12-11T12:25:56.814Z,25.75
2018-12-11T12:28:25.859Z,21.50
2018-12-11T12:30:55.523Z,27.52
2018-12-11T12:33:24.151Z,27.58
2018-12-11T12:35:52.764Z,19.50
2018-12-11T12:38:22.124Z,17.00
2018-12-11T12:40:50.767Z,25.68
2018-12-11T12:43:19.396Z,24.07
2018-12-11T12:45:48.399Z,24.82
2018-12-11T12:48:17.750Z,17.73
2018-12-11T12:50:47.014Z,19.42
2018-12-11T12:53:16.279Z,25.60
2018-12-11T12:55:45.417Z,17.60
2018-12-11T12:58:15.007Z,25.35
2018-12-11T13:00:44.188Z,26.50
2018-12-11T13:03:13.515Z,24.05
2018-12-11T13:05:42.788Z,19.27
2018-12-11T13:08:11.871Z,21.27
2018-12-11T13:10:41.683Z,25.12
2018-12-11T13:13:10.742Z,26.10
2018-12-11T13:15:40.056Z,18.95
2018-12-11T13:18:09.302Z,19.67
2018-12-11T13:20:37.953Z,21.40
2018-12-11T13:23:06.563Z,26.93
2018-12-11T13:25:35.577Z,21.87
2018-12-11T13:28:04.651Z,22.60
2018-12-11T13:30:33.776Z,18.92
2018-12-11T13:33:03.085Z,16.67
2018-12-11T13:35:32.388Z,23.40
2018-12-11T13:38:01.856Z,17.10
2018-12-11T13:40:31.865Z,23.50
2018-12-11T13:43:01.054Z,22.62
2018-12-11T13:45:30.187Z,20.40
2018-12-11T13:47:59.470Z,22.70
2018-12-11T13:50:28.778Z,22.02
2018-12-11T13:52:58.276Z,20.20
2018-12-11T13:55:27.553Z,21.48
2018-12-11T13:57:56.871Z,17.67
2018-12-11T14:00:26.146Z,20.82
2018-12-11T14:02:55.404Z,17.90
2018-12-11T14:05:24.778Z,16.37
2018-12-11T14:07:53.412Z,15.93
2018-12-11T14:10:22.066Z,15.20
2018-12-11T14:12:50.719Z,15.93
2018-12-11T14:15:19.366Z,16.07
2018-12-11T14:17:48.527Z,17.45
2018-12-11T14:20:17.608Z,13.35
2018-12-11T14:22:46.927Z,12.03
2018-12-11T14:25:16.049Z,14.55
2018-12-11T14:27:45.222Z,14.38
2018-12-11T14:30:14.267Z,13.55
2018-12-11T14:32:43.605Z,14.83
2018-12-11T14:35:13.127Z,14.95
2018-12-11T14:37:42.404Z,12.60
2018-12-11T14:40:11.499Z,16.20
2018-12-11T14:42:40.760Z,19.07
2018-12-11T14:45:09.442Z,11.12
2018-12-11T14:47:38.553Z,13.78
2018-12-11T14:50:07.517Z,12.93
2018-12-11T14:52:36.514Z,14.35
2018-12-11T14:55:06.464Z,13.95
2018-12-11T14:57:35.802Z,13.80
2018-12-11T15:00:05.880Z,11.28
2018-12-11T15:02:35.525Z,11.75
2018-12-11T15:05:04.927Z,12.90
2018-12-11T15:07:34.213Z,13.28
2018-12-11T15:10:03.609Z,12.93
2018-12-11T15:12:33.036Z,9.60
2018-12-11T15:15:02.240Z,8.48
2018-12-11T15:17:31.439Z,10.28
2018-12-11T15:20:00.319Z,9.30
2018-12-11T15:22:29.345Z,8.05
2018-12-11T15:24:58.509Z,8.53
2018-12-11T15:27:27.529Z,7.00
2018-12-11T15:29:56.858Z,4.92
2018-12-11T15:32:25.491Z,5.95
2018-12-11T15:34:54.141Z,5.67
2018-12-11T15:37:22.776Z,5.37
2018-12-11T15:39:51.424Z,6.83
2018-12-11T15:42:20.652Z,6.87
2018-12-11T15:44:50.152Z,6.03
2018-12-11T15:47:19.746Z,5.78
2018-12-11T15:49:48.971Z,4.70
2018-12-11T15:52:18.087Z,4.15
2018-12-11T15:54:47.149Z,4.37
2018-12-11T15:57:16.693Z,5.25
2018-12-11T15:59:46.180Z,4.70
2018-12-11T16:02:15.514Z,4.05
2018-12-11T16:04:44.543Z,4.97
2018-12-11T16:07:14.097Z,4.22
2018-12-11T16:09:43.635Z,3.52
2018-12-11T16:12:12.666Z,3.25
2018-12-11T16:14:41.273Z,3.70
2018-12-11T16:17:10.656Z,3.12
2018-12-11T16:19:39.994Z,1.80
2018-12-11T16:22:08.634Z,2.80
2018-12-11T16:24:37.277Z,3.65
2018-12-11T16:27:06.547Z,1.90
2018-12-11T16:29:35.606Z,2.98
2018-12-11T16:32:04.713Z,2.20
2018-12-11T16:34:34.012Z,3.10
2018-12-11T16:37:03.517Z,2.87
2018-12-11T16:39:32.912Z,2.00
2018-12-11T16:42:02.198Z,2.85
2018-12-11T16:44:31.281Z,2.15
2018-12-11T16:47:00.783Z,1.57
2018-12-11T16:49:29.935Z,2.08
2018-12-11T16:51:58.924Z,1.87
2018-12-11T16:54:28.226Z,2.37
2018-12-11T16:56:57.303Z,2.37
2018-12-11T16:59:25.926Z,1.87
2018-12-11T17:01:54.580Z,1.90
2018-12-11T17:04:23.263Z,2.00
2018-12-11T17:06:51.874Z,1.90
2018-12-11T17:09:20.523Z,3.80
2018-12-11T17:11:49.779Z,2.50
2018-12-11T17:14:18.903Z,2.90
2018-12-11T17:16:48.232Z,2.37
2018-12-11T17:19:17.284Z,1.90
2018-12-11T17:21:47.046Z,1.70
2018-12-11T17:24:16.600Z,2.50
2018-12-11T17:26:45.919Z,1.90
2018-12-11T17:29:15.196Z,2.10
2018-12-11T17:31:44.325Z,1.70
2018-12-11T17:34:13.573Z,2.30
2018-12-11T17:36:42.980Z,1.90
2018-12-11T17:39:12.227Z,1.93
2018-12-11T17:41:41.684Z,1.90
2018-12-11T17:44:10.305Z,1.98
2018-12-11T17:46:39.100Z,1.95
2018-12-11T17:49:08.560Z,1.90
2018-12-11T17:51:37.363Z,1.70
2018-12-11T17:54:05.992Z,2.20
2018-12-11T17:56:35.500Z,1.60
2018-12-11T17:59:04.784Z,2.27
2018-12-11T18:01:34.458Z,2.23
2018-12-11T18:04:03.824Z,1.90
2018-12-11T18:06:33.120Z,1.80
2018-12-11T18:09:02.383Z,2.10
2018-12-11T18:11:31.738Z,1.70
2018-12-11T18:14:01.128Z,2.05
2018-12-11T18:16:30.926Z,1.87
2018-12-11T18:19:00.435Z,1.98
2018-12-11T18:21:29.485Z,1.83
2018-12-11T18:23:58.567Z,1.87
2018-12-11T18:26:27.756Z,2.23
2018-12-11T18:28:56.397Z,1.77
2018-12-11T18:31:25.058Z,2.05
2018-12-11T18:33:53.732Z,2.40
2018-12-11T18:36:22.391Z,2.30
2018-12-11T18:38:51.033Z,2.00
2018-12-11T18:41:20.177Z,2.27
2018-12-11T18:43:49.547Z,1.90
2018-12-11T18:46:18.558Z,2.10
2018-12-11T18:48:47.795Z,2.13
2018-12-11T18:51:17.320Z,2.40
2018-12-11T18:53:46.350Z,2.40
2018-12-11T18:56:15.678Z,2.40
2018-12-11T18:58:44.839Z,2.27
2018-12-11T19:01:14.940Z,3.10
2018-12-11T19:03:49.306Z,2.47
2018-12-11T19:06:15.851Z,2.73
2018-12-11T19:08:45.108Z,3.60
2018-12-11T19:11:14.231Z,3.10
2018-12-11T19:13:43.354Z,3.20
2018-12-11T19:16:13.135Z,4.83
2018-12-11T19:18:42.297Z,3.90
2018-12-11T19:21:11.433Z,3.37
2018-12-11T19:23:40.823Z,3.33
2018-12-11T19:26:10.284Z,4.00
2018-12-11T19:28:39.535Z,2.90
2018-12-11T19:31:08.639Z,4.00
2018-12-11T19:33:38.165Z,3.90
2018-12-11T19:36:07.476Z,4.77
2018-12-11T19:38:36.407Z,4.40
2018-12-11T19:41:05.541Z,3.80
2018-12-11T19:43:34.649Z,3.17
2018-12-11T19:46:03.879Z,3.70
2018-12-11T19:48:33.184Z,2.93
2018-12-11T19:51:02.308Z,3.87
2018-12-11T19:53:31.290Z,3.17
2018-12-11T19:55:59.912Z,3.10
2018-12-11T19:58:28.982Z,2.80
2018-12-11T20:00:57.604Z,2.80
2018-12-11T20:03:26.282Z,3.90
2018-12-11T20:05:55.580Z,3.20
2018-12-11T20:08:30.867Z,3.03
2018-12-11T20:10:56.156Z,3.40
2018-12-11T20:13:25.481Z,2.83
2018-12-11T20:15:54.774Z,2.87
2018-12-11T20:18:24.102Z,3.83
2018-12-11T20:20:53.377Z,2.90
2018-12-11T20:23:22.435Z,4.27
2018-12-11T20:25:51.367Z,2.67
2018-12-11T20:28:20.699Z,3.43
2018-12-11T20:30:49.736Z,3.60
2018-12-11T20:33:19.102Z,3.20
2018-12-11T20:35:48.336Z,4.00
2018-12-11T20:38:17.611Z,3.70
2018-12-11T20:40:46.523Z,3.27
2018-12-11T20:43:15.463Z,3.87
2018-12-11T20:45:44.085Z,4.00
2018-12-11T20:48:12.710Z,3.67
2018-12-11T20:50:41.331Z,4.20
2018-12-11T20:53:10.256Z,4.00
2018-12-11T20:55:39.771Z,4.83
2018-12-11T20:58:09.086Z,3.80
2018-12-11T21:00:38.183Z,3.70
2018-12-11T21:03:07.132Z,3.93
2018-12-11T21:05:36.467Z,3.70
2018-12-11T21:08:05.523Z,4.67
2018-12-11T21:10:34.629Z,3.40
2018-12-11T21:13:03.877Z,4.00
2018-12-11T21:15:32.895Z,3.83
2018-12-11T21:18:02.031Z,3.47
2018-12-11T21:20:31.185Z,3.70
2018-12-11T21:23:00.414Z,3.23
2018-12-11T21:25:29.053Z,3.10
2018-12-11T21:27:58.676Z,3.63
2018-12-11T21:30:27.721Z,3.90
2018-12-11T21:32:57.266Z,3.93
2018-12-11T21:35:26.551Z,4.00
2018-12-11T21:37:55.824Z,4.27
2018-12-11T21:40:25.139Z,4.17
2018-12-11T21:42:54.092Z,4.00
2018-12-11T21:45:23.645Z,4.40
2018-12-11T21:47:52.913Z,4.30
2018-12-11T21:50:22.023Z,4.70
2018-12-11T21:52:51.012Z,3.73
2018-12-11T21:55:20.354Z,3.60
2018-12-11T21:57:49.803Z,3.80
2018-12-11T22:00:18.985Z,5.07
2018-12-11T22:02:48.582Z,5.00
2018-12-11T22:05:17.726Z,5.40
2018-12-11T22:07:46.776Z,5.03
2018-12-11T22:10:15.514Z,4.80
2018-12-11T22:12:45.153Z,3.87
2018-12-11T22:15:13.792Z,4.50
2018-12-11T22:17:42.453Z,5.27
2018-12-11T22:20:11.524Z,5.10
2018-12-11T22:22:40.714Z,4.97
2018-12-11T22:25:10.089Z,5.30
2018-12-11T22:27:39.283Z,4.20
2018-12-11T22:30:08.517Z,3.67
2018-12-11T22:32:37.612Z,3.30
2018-12-11T22:35:06.719Z,3.13
2018-12-11T22:37:36.036Z,3.57
2018-12-11T22:40:05.515Z,3.80
2018-12-11T22:42:34.907Z,3.63
2018-12-11T22:45:12.787Z,3.37
2018-12-11T22:47:42.325Z,3.90
2018-12-11T22:50:11.729Z,3.20
2018-12-11T22:52:41.432Z,2.70
2018-12-11T22:55:10.104Z,3.07
2018-12-11T22:57:38.773Z,2.50
2018-12-11T23:00:10.576Z,2.80
2018-12-11T23:02:40.778Z,4.13
2018-12-11T23:05:10.093Z,4.43
2018-12-11T23:07:39.111Z,5.50
2018-12-11T23:10:08.409Z,6.43
2018-12-11T23:12:37.716Z,4.73
2018-12-11T23:15:07.625Z,5.47
2018-12-11T23:17:36.888Z,4.20
2018-12-11T23:20:06.048Z,4.43
2018-12-11T23:22:35.108Z,4.00
2018-12-11T23:25:04.613Z,3.53
2018-12-11T23:27:34.545Z,3.00
2018-12-11T23:30:03.626Z,2.37
2018-12-11T23:32:32.783Z,1.90
2018-12-11T23:35:02.448Z,3.13
2018-12-11T23:37:31.609Z,2.80
2018-12-11T23:40:00.711Z,3.13
2018-12-11T23:42:30.016Z,2.90
2018-12-11T23:44:58.665Z,3.30
2018-12-11T23:47:27.302Z,3.33
2018-12-11T23:49:56.266Z,3.40
2018-12-11T23:52:25.546Z,2.47
2018-12-11T23:54:54.871Z,3.33
2018-12-11T23:57:24.155Z,2.30
2018-12-11T23:59:52.806Z,2.50
